Ulyanovsk East Airport
UWLW : now visible

Airfield :











YOU CAN JOIN US ON...

 
LOGIN :

Register | Disclaimer

   EN    FR    IT 

 









Legend :    VFR   Marginal VFR   IFR   Intensive IFR   Very Intensive IFR
Visi :
Ceiling :
>= 8 km
>= 3000ft
5 to 8 km
1000 to 3000 ft
1500m to 5 km
500 to 1000 ft
800 to 1500m
200 to 500 ft
< 800m
< 200 ft
Symbols :   Thunderstorms  Fog  Heavy snow  Heavy precipitations  Wind > 20 kt






- Airport Elevation : 252 ft
- IATA code : ULY


UWLW - Ulyanovsk East

CURRENT METAR :
  • 241800Z 17001MPS 8000 NSC M04/M05 Q1003 R20/100055 NOSIG RMK QFE747

EXPIRED METARs :
  • 241700Z 16003MPS 8000 NSC M03/M04 Q1003 R20/100055 NOSIG RMK QFE747
  • 241600Z 17002MPS 8000 NSC M02/M05 Q1002 R20/100055 NOSIG RMK QFE746

TAF TAF UWLW
Valid from the 24 at 18:00 until the 25 at 18:00 UTC


241655Z 2418/2518 18003G08MPS 8000 BKN015
TEMPO 2418/2421 15007G13MPS 3100 -SNRA OVC011
FM242100 16005G10MPS 3100 -SNRA BR OVC011
TEMPO 2421/2518 13007G13MPS 0500 +SNRA VV002



MET'MAP, your aeronautical weather chart ! - Copyright ORBIFLY December 2007 - Disclaimer

ORBIFLY MET'MAP TEAM :

Programming & Development : Alexandra Zaïnal
Concept & original design : Baudouin d'Aumeries
Assistance for programming : Marc-Olivier Méhu
Technical & hardware support : Manuel Goepfert

Contact : metmap@orbifly.com




SOURCES & CREDITS :

   NOAA       Earth
Advisory